createdAt,value
2023-01-30T00:01:27.753Z,95266.94
2023-01-30T00:03:54.717Z,95269.97
2023-01-30T00:06:21.924Z,95251.19
2023-01-30T00:08:49.097Z,95271.16
2023-01-30T00:11:17.654Z,95259.63
2023-01-30T00:13:44.580Z,95248.28
2023-01-30T00:16:12.015Z,95259.16
2023-01-30T00:18:40.968Z,95245.59
2023-01-30T00:21:10.554Z,95235.28
2023-01-30T00:23:38.299Z,95270.63
2023-01-30T00:26:09.732Z,95271.91
2023-01-30T00:28:39.793Z,95242.22
2023-01-30T00:31:07.022Z,95246.25
2023-01-30T00:33:33.992Z,95190.91
2023-01-30T00:36:01.993Z,95254.13
2023-01-30T00:38:28.901Z,95250.84
2023-01-30T00:40:55.785Z,95248.06
2023-01-30T00:44:01.034Z,95246.44
2023-01-30T00:46:52.051Z,95231.56
2023-01-30T00:49:20.392Z,95256.88
2023-01-30T00:51:50.311Z,95225.78
2023-01-30T00:54:17.365Z,95238.91
2023-01-30T00:56:44.600Z,95217.50
2023-01-30T00:59:11.856Z,95203.03
2023-01-30T01:01:39.222Z,95216.06
2023-01-30T01:04:07.525Z,95234.19
2023-01-30T01:06:34.573Z,95240.91
2023-01-30T01:09:04.892Z,95166.13
2023-01-30T01:11:31.878Z,95233.09
2023-01-30T01:14:02.760Z,95238.13
2023-01-30T01:16:31.370Z,95235.50
2023-01-30T01:18:59.311Z,95242.69
2023-01-30T01:21:26.426Z,95226.50
2023-01-30T01:23:55.789Z,95219.28
2023-01-30T01:26:22.526Z,95220.75
2023-01-30T01:28:50.010Z,95219.13
2023-01-30T01:31:18.517Z,95205.75
2023-01-30T01:33:45.571Z,95205.75
2023-01-30T01:36:20.049Z,95215.75
2023-01-30T01:38:56.485Z,95219.28
2023-01-30T01:41:23.456Z,95197.88
2023-01-30T01:44:10.766Z,95212.91
2023-01-30T01:46:42.688Z,95195.59
2023-01-30T01:49:21.077Z,95209.19
2023-01-30T01:52:13.765Z,95220.09
2023-01-30T01:54:59.296Z,95220.75
2023-01-30T01:57:33.038Z,95211.91
2023-01-30T02:00:12.927Z,95216.66
2023-01-30T02:02:43.899Z,95208.88
2023-01-30T02:05:15.003Z,95223.44
2023-01-30T02:07:48.264Z,95226.00
2023-01-30T02:10:19.823Z,95223.22
2023-01-30T02:12:48.188Z,95210.84
2023-01-30T02:15:15.714Z,95187.31
2023-01-30T02:17:43.099Z,95209.75
2023-01-30T02:20:47.918Z,95222.31
2023-01-30T02:23:39.691Z,95214.91
2023-01-30T02:26:26.206Z,95220.28
2023-01-30T02:29:00.785Z,95222.28
2023-01-30T02:31:50.400Z,95175.91
2023-01-30T02:34:35.752Z,95212.78
2023-01-30T02:37:18.374Z,95215.03
2023-01-30T02:40:00.511Z,95216.03
2023-01-30T02:42:56.907Z,95209.19
2023-01-30T02:45:39.148Z,95192.44
2023-01-30T02:48:35.621Z,95177.25
2023-01-30T02:51:27.862Z,95194.25
2023-01-30T02:53:55.388Z,95193.63
2023-01-30T02:56:22.326Z,95186.00
2023-01-30T02:58:54.572Z,95207.00
2023-01-30T03:01:34.157Z,95206.31
2023-01-30T03:04:27.775Z,95191.16
2023-01-30T03:07:21.485Z,95192.16
2023-01-30T03:09:58.431Z,95176.09
2023-01-30T03:12:40.699Z,95197.31
2023-01-30T03:15:12.226Z,95136.53
2023-01-30T03:17:44.111Z,95195.59
2023-01-30T03:20:15.362Z,95177.34
2023-01-30T03:22:42.371Z,95181.78
2023-01-30T03:25:11.625Z,95185.69
2023-01-30T03:27:40.808Z,95169.53
2023-01-30T03:30:08.671Z,95166.75
2023-01-30T03:32:35.652Z,95176.44
2023-01-30T03:35:04.581Z,95166.28
2023-01-30T03:37:31.652Z,95170.22
2023-01-30T03:39:59.403Z,95151.09
2023-01-30T03:42:27.270Z,95154.50
2023-01-30T03:44:54.415Z,95138.22
2023-01-30T03:47:21.395Z,95138.81
2023-01-30T03:49:50.843Z,95169.63
2023-01-30T03:52:17.752Z,95139.97
2023-01-30T03:54:45.058Z,95169.84
2023-01-30T03:57:12.226Z,95163.25
2023-01-30T03:59:39.377Z,95164.72
2023-01-30T04:02:09.901Z,95170.28
2023-01-30T04:04:37.379Z,95145.25
2023-01-30T04:07:06.678Z,95144.44
2023-01-30T04:09:34.059Z,95162.16
2023-01-30T04:12:02.113Z,95159.66
2023-01-30T04:14:34.956Z,95133.75
2023-01-30T04:17:15.291Z,95154.72
2023-01-30T04:20:05.680Z,95146.94
2023-01-30T04:22:35.159Z,95153.50
2023-01-30T04:25:02.426Z,95132.50
2023-01-30T04:27:30.722Z,95110.72
2023-01-30T04:30:14.721Z,95158.75
2023-01-30T04:32:42.562Z,95149.72
2023-01-30T04:35:11.053Z,95144.88
2023-01-30T04:37:38.788Z,95137.34
2023-01-30T04:40:07.441Z,95148.00
2023-01-30T04:42:35.356Z,95149.53
2023-01-30T04:45:44.944Z,95157.16
2023-01-30T04:48:12.969Z,95146.69
2023-01-30T04:50:41.473Z,95141.28
2023-01-30T04:53:09.494Z,95130.13
2023-01-30T04:55:37.094Z,95143.97
2023-01-30T04:58:04.409Z,95144.31
2023-01-30T05:00:31.885Z,95120.81
2023-01-30T05:03:01.309Z,95125.69
2023-01-30T05:05:28.687Z,95141.00
2023-01-30T05:07:55.809Z,95138.91
2023-01-30T05:10:22.771Z,95129.81
2023-01-30T05:12:49.893Z,95120.91
2023-01-30T05:15:17.318Z,95127.38
2023-01-30T05:17:45.690Z,95132.13
2023-01-30T05:20:13.932Z,95136.84
2023-01-30T05:22:41.166Z,95138.22
2023-01-30T05:25:08.588Z,95140.31
2023-01-30T05:27:35.608Z,95138.50
2023-01-30T05:30:02.567Z,95130.22
2023-01-30T05:32:31.185Z,95146.47
2023-01-30T05:34:58.273Z,95148.06
2023-01-30T05:37:25.407Z,95148.72
2023-01-30T05:39:52.276Z,95137.53
2023-01-30T05:42:19.243Z,95148.97
2023-01-30T05:44:46.403Z,95129.00
2023-01-30T05:47:13.355Z,95130.13
2023-01-30T05:49:40.436Z,95143.91
2023-01-30T05:52:07.328Z,95124.34
2023-01-30T05:54:35.381Z,95149.00
2023-01-30T05:57:02.319Z,95153.03
2023-01-30T05:59:29.152Z,95155.31
2023-01-30T06:01:55.984Z,95157.75
2023-01-30T06:04:23.045Z,95157.47
2023-01-30T06:06:51.025Z,95163.50
2023-01-30T06:09:18.075Z,95138.78
2023-01-30T06:11:44.958Z,95157.56
2023-01-30T06:14:11.831Z,95132.06
2023-01-30T06:16:38.895Z,95145.38
2023-01-30T06:19:05.754Z,95137.78
2023-01-30T06:21:32.985Z,95133.69
2023-01-30T06:23:59.868Z,95140.38
2023-01-30T06:26:27.205Z,95147.00
2023-01-30T06:28:54.010Z,95139.50
2023-01-30T06:31:21.039Z,95141.31
2023-01-30T06:33:49.490Z,95096.94
2023-01-30T06:36:16.468Z,95140.03
2023-01-30T06:38:43.359Z,95151.91
2023-01-30T06:41:10.624Z,95153.78
2023-01-30T06:43:37.469Z,95153.13
2023-01-30T06:46:04.606Z,95152.47
2023-01-30T06:48:31.554Z,95144.97
2023-01-30T06:50:58.741Z,95151.16
2023-01-30T06:53:30.499Z,95160.34
2023-01-30T06:56:02.088Z,95159.19
2023-01-30T06:58:29.155Z,95152.16
2023-01-30T07:00:56.096Z,95143.56
2023-01-30T07:03:24.186Z,95164.75
2023-01-30T07:05:53.433Z,95163.63
2023-01-30T07:08:22.494Z,95156.03
2023-01-30T07:10:50.257Z,95166.31
2023-01-30T07:13:17.390Z,95156.69
2023-01-30T07:15:45.036Z,95164.97
2023-01-30T07:18:12.493Z,95174.72
2023-01-30T07:20:40.197Z,95172.22
2023-01-30T07:23:07.273Z,95164.34
2023-01-30T07:25:34.169Z,95154.75
2023-01-30T07:28:02.447Z,95172.56
2023-01-30T07:30:31.954Z,95169.78
2023-01-30T07:33:00.211Z,95172.72
2023-01-30T07:35:30.390Z,95175.63
2023-01-30T07:37:58.161Z,95177.91
2023-01-30T07:40:26.231Z,95154.88
2023-01-30T07:43:02.008Z,95184.88
2023-01-30T07:45:35.872Z,95186.41
2023-01-30T07:48:02.834Z,95173.78
2023-01-30T07:50:29.783Z,95180.09
2023-01-30T07:52:56.852Z,95170.53
2023-01-30T07:55:23.990Z,95178.66
2023-01-30T07:57:51.066Z,95169.97
2023-01-30T08:00:18.788Z,95151.34
2023-01-30T08:02:45.904Z,95157.56
2023-01-30T08:05:12.961Z,95153.66
2023-01-30T08:07:40.138Z,95141.94
2023-01-30T08:10:08.550Z,95152.66
2023-01-30T08:12:37.552Z,95152.59
2023-01-30T08:15:04.975Z,95136.06
2023-01-30T08:17:31.951Z,95124.34
2023-01-30T08:19:59.133Z,95139.81
2023-01-30T08:22:26.197Z,95122.91
2023-01-30T08:24:53.291Z,95146.19
2023-01-30T08:27:20.243Z,95143.94
2023-01-30T08:29:47.212Z,95112.84
2023-01-30T08:32:14.903Z,95116.88
2023-01-30T08:34:46.058Z,95129.88
2023-01-30T08:37:13.144Z,95128.31
2023-01-30T08:39:40.043Z,95116.47
2023-01-30T08:42:06.981Z,95057.16
2023-01-30T08:44:33.925Z,95114.53
2023-01-30T08:47:00.839Z,95116.13
2023-01-30T08:49:27.988Z,95124.34
2023-01-30T08:51:54.892Z,95060.50
2023-01-30T08:54:22.125Z,95108.81
2023-01-30T08:56:49.043Z,95115.25
2023-01-30T08:59:16.093Z,95109.31
2023-01-30T09:01:42.839Z,95093.72
2023-01-30T09:04:09.863Z,95093.84
2023-01-30T09:06:36.643Z,95104.91
2023-01-30T09:09:03.900Z,95106.97
2023-01-30T09:11:30.743Z,95053.19
2023-01-30T09:13:57.710Z,95088.06
2023-01-30T09:16:24.763Z,95102.81
2023-01-30T09:18:51.809Z,95091.84
2023-01-30T09:21:18.968Z,95087.44
2023-01-30T09:23:46.644Z,95083.25
2023-01-30T09:26:13.719Z,95080.78
2023-01-30T09:28:40.643Z,95088.34
2023-01-30T09:31:07.852Z,95074.38
2023-01-30T09:33:34.732Z,95100.66
2023-01-30T09:36:01.724Z,95086.25
2023-01-30T09:38:28.609Z,95097.38
2023-01-30T09:41:00.024Z,95095.16
2023-01-30T09:43:45.158Z,95095.84
2023-01-30T09:46:38.061Z,95089.94
2023-01-30T09:49:05.017Z,95085.34
2023-01-30T09:51:53.550Z,95085.22
2023-01-30T09:54:29.507Z,95042.00
2023-01-30T09:57:22.494Z,95070.38
2023-01-30T09:59:55.670Z,95072.22
2023-01-30T10:02:37.311Z,95065.00
2023-01-30T10:05:04.894Z,95066.44
2023-01-30T10:07:44.042Z,95052.38
2023-01-30T10:10:17.412Z,95056.34
2023-01-30T10:13:07.228Z,95043.34
2023-01-30T10:15:59.742Z,95038.63
2023-01-30T10:18:32.483Z,95037.28
2023-01-30T10:21:20.332Z,94992.63
2023-01-30T10:23:50.381Z,95033.97
2023-01-30T10:26:26.268Z,95026.97
2023-01-30T10:29:14.066Z,95014.78
2023-01-30T10:31:58.030Z,95010.63
2023-01-30T10:34:40.398Z,95018.03
2023-01-30T10:37:19.084Z,95007.41
2023-01-30T10:40:03.072Z,94991.25
2023-01-30T10:42:39.615Z,94994.97
2023-01-30T10:45:15.087Z,94988.63
2023-01-30T10:48:02.415Z,94982.78
2023-01-30T10:50:48.305Z,94926.69
2023-01-30T10:53:28.400Z,94965.72
2023-01-30T10:56:10.993Z,94931.09
2023-01-30T10:58:53.385Z,94959.25
2023-01-30T11:01:28.830Z,94912.03
2023-01-30T11:04:19.458Z,94913.41
2023-01-30T11:06:47.761Z,94858.34
2023-01-30T11:09:14.637Z,94750.97
2023-01-30T11:11:49.613Z,94926.97
2023-01-30T11:14:16.670Z,94911.06
2023-01-30T11:16:49.066Z,94921.63
2023-01-30T11:19:21.605Z,94902.34
2023-01-30T11:22:01.079Z,94894.41
2023-01-30T11:24:41.156Z,94894.94
2023-01-30T11:27:25.525Z,94872.78
2023-01-30T11:30:05.377Z,94846.97
2023-01-30T11:32:32.627Z,94836.13
2023-01-30T11:35:06.797Z,94887.63
2023-01-30T11:37:37.784Z,94884.16
2023-01-30T11:40:26.418Z,94825.84
2023-01-30T11:43:03.219Z,94869.72
2023-01-30T11:45:36.550Z,94842.03
2023-01-30T11:48:32.821Z,94832.66
2023-01-30T11:51:09.715Z,94830.78
2023-01-30T11:53:50.836Z,94842.22
2023-01-30T11:56:29.711Z,94836.41
2023-01-30T11:59:00.257Z,94781.44
2023-01-30T12:01:30.248Z,94751.13
2023-01-30T12:04:01.981Z,94732.41
2023-01-30T12:06:32.331Z,94779.03
2023-01-30T12:09:02.325Z,94789.66
2023-01-30T12:11:36.995Z,94794.28
2023-01-30T12:14:46.280Z,94802.91
2023-01-30T12:17:22.613Z,94791.28
2023-01-30T12:20:00.424Z,94786.91
2023-01-30T12:22:37.153Z,94772.91
2023-01-30T12:25:16.307Z,94770.75
2023-01-30T12:30:44.803Z,94780.44
2023-01-30T12:36:12.402Z,94625.47
2023-01-30T12:38:48.915Z,94764.31
2023-01-30T12:41:27.245Z,94773.88
2023-01-30T12:44:40.586Z,94754.88
2023-01-30T12:47:19.984Z,94754.47
2023-01-30T12:50:03.495Z,94749.84
2023-01-30T12:52:43.965Z,94750.75
2023-01-30T12:55:36.835Z,94740.16
2023-01-30T12:58:12.262Z,94728.56
2023-01-30T13:00:48.684Z,94711.03
2023-01-30T13:03:27.495Z,94743.22
2023-01-30T13:06:07.975Z,94734.63
2023-01-30T13:08:55.697Z,94727.13
2023-01-30T13:12:11.326Z,94732.00
2023-01-30T13:14:56.730Z,94724.88
2023-01-30T13:17:37.830Z,94731.47
2023-01-30T13:20:15.758Z,94728.00
2023-01-30T13:23:15.740Z,94721.09
2023-01-30T13:25:59.222Z,94729.38
2023-01-30T13:28:32.019Z,94728.94
2023-01-30T13:31:00.495Z,94710.78
2023-01-30T13:33:33.057Z,94714.75
2023-01-30T13:36:11.423Z,94710.75
2023-01-30T13:38:46.338Z,94699.63
2023-01-30T13:41:16.976Z,94694.28
2023-01-30T13:43:50.339Z,94688.72
2023-01-30T13:46:27.518Z,94692.84
2023-01-30T13:49:17.266Z,94688.16
2023-01-30T13:52:18.067Z,94696.31
2023-01-30T13:55:11.100Z,94698.53
2023-01-30T13:58:06.068Z,94701.00
2023-01-30T14:00:35.952Z,94695.66
2023-01-30T14:03:06.051Z,94673.78
2023-01-30T14:05:51.327Z,94698.81
2023-01-30T14:08:25.691Z,94692.75
2023-01-30T14:10:55.667Z,94700.53
2023-01-30T14:13:24.605Z,94690.44
2023-01-30T14:16:02.485Z,94700.09
2023-01-30T14:18:39.247Z,94692.41
2023-01-30T14:21:17.135Z,94688.59
2023-01-30T14:23:59.494Z,94669.66
2023-01-30T14:26:48.394Z,94704.66
2023-01-30T14:29:43.329Z,94705.97
2023-01-30T14:32:13.851Z,94705.38
2023-01-30T14:34:45.200Z,94699.47
2023-01-30T14:37:39.194Z,94698.94
2023-01-30T14:40:21.459Z,94701.66
2023-01-30T14:43:13.260Z,94696.47
2023-01-30T14:45:57.629Z,94687.22
2023-01-30T14:48:46.953Z,94677.28
2023-01-30T14:51:33.740Z,94670.47
2023-01-30T14:54:11.023Z,94673.63
2023-01-30T14:56:50.942Z,94654.50
2023-01-30T14:59:17.803Z,94668.72
2023-01-30T15:02:17.187Z,94661.84
2023-01-30T15:05:05.626Z,94677.44
2023-01-30T15:07:50.549Z,94656.16
2023-01-30T15:10:36.410Z,94666.09
2023-01-30T15:13:21.313Z,94655.22
2023-01-30T15:16:15.154Z,94662.19
2023-01-30T15:19:19.730Z,94672.00
2023-01-30T15:22:31.149Z,94676.19
2023-01-30T15:25:43.231Z,94661.03
2023-01-30T15:28:36.606Z,94677.63
2023-01-30T15:31:09.752Z,94677.03
2023-01-30T15:33:45.341Z,94664.94
2023-01-30T15:36:38.971Z,94675.53
2023-01-30T15:39:23.712Z,94680.84
2023-01-30T15:41:52.793Z,94657.00
2023-01-30T15:44:48.634Z,94665.66
2023-01-30T15:47:48.721Z,94674.19
2023-01-30T15:50:16.507Z,94662.59
2023-01-30T15:52:49.314Z,94646.00
2023-01-30T15:55:29.710Z,94673.00
2023-01-30T15:58:01.527Z,94657.53
2023-01-30T16:00:33.457Z,94671.25
2023-01-30T16:03:03.203Z,94666.59
2023-01-30T16:05:30.852Z,94662.34
2023-01-30T16:08:09.190Z,94654.97
2023-01-30T16:10:44.463Z,94670.84
2023-01-30T16:13:11.652Z,94660.72
2023-01-30T16:15:54.726Z,94637.06
2023-01-30T16:18:21.730Z,94650.31
2023-01-30T16:21:02.026Z,94643.41
2023-01-30T16:23:41.679Z,94659.81
2023-01-30T16:26:18.051Z,94638.66
2023-01-30T16:28:45.365Z,94628.34
2023-01-30T16:31:12.539Z,94630.44
2023-01-30T16:33:39.592Z,94641.09
2023-01-30T16:36:26.669Z,94636.28
2023-01-30T16:38:56.660Z,94630.69
2023-01-30T16:41:36.487Z,94646.56
2023-01-30T16:44:18.701Z,94648.66
2023-01-30T16:46:52.968Z,94623.66
2023-01-30T16:49:24.715Z,94642.59
2023-01-30T16:52:12.404Z,94646.22
2023-01-30T16:54:41.499Z,94645.94
2023-01-30T16:57:23.901Z,94634.56
2023-01-30T16:59:50.882Z,94639.00
2023-01-30T17:02:36.395Z,94647.47
2023-01-30T17:05:20.712Z,94641.44
2023-01-30T17:07:48.883Z,94651.44
2023-01-30T17:10:28.280Z,94661.41
2023-01-30T17:12:56.380Z,94655.34
2023-01-30T17:15:31.967Z,94666.47
2023-01-30T17:18:00.494Z,94643.44
2023-01-30T17:20:36.534Z,94591.72
2023-01-30T17:23:07.403Z,94642.63
2023-01-30T17:25:44.311Z,94654.19
2023-01-30T17:28:18.401Z,94659.03
2023-01-30T17:30:45.327Z,94602.66
2023-01-30T17:33:12.208Z,94642.97
2023-01-30T17:35:40.504Z,94638.19
2023-01-30T17:38:09.124Z,94620.84
2023-01-30T17:40:38.472Z,94639.53
2023-01-30T17:43:05.546Z,94647.56
2023-01-30T17:45:32.776Z,94613.41
2023-01-30T17:47:59.869Z,94625.19
2023-01-30T17:50:28.540Z,94624.47
2023-01-30T17:52:55.779Z,94618.41
2023-01-30T17:55:23.159Z,94626.03
2023-01-30T17:57:50.017Z,94630.78
2023-01-30T18:00:19.899Z,94622.13
2023-01-30T18:02:47.727Z,94616.94
2023-01-30T18:05:15.237Z,94613.44
2023-01-30T18:07:42.757Z,94627.16
2023-01-30T18:10:19.713Z,94555.53
2023-01-30T18:12:47.265Z,94625.34
2023-01-30T18:15:15.716Z,94628.22
2023-01-30T18:17:47.444Z,94630.03
2023-01-30T18:20:18.261Z,94620.25
2023-01-30T18:22:46.272Z,94624.50
2023-01-30T18:25:13.838Z,94609.34
2023-01-30T18:27:44.360Z,94627.38
2023-01-30T18:30:14.500Z,94631.44
2023-01-30T18:32:52.420Z,94615.91
2023-01-30T18:35:20.926Z,94618.63
2023-01-30T18:37:47.773Z,94623.03
2023-01-30T18:40:15.286Z,94604.78
2023-01-30T18:42:42.514Z,94624.66
2023-01-30T18:45:09.906Z,94632.13
2023-01-30T18:47:36.736Z,94625.06
2023-01-30T18:50:04.887Z,94606.13
2023-01-30T18:52:31.872Z,94629.66
2023-01-30T18:54:58.881Z,94633.38
2023-01-30T18:57:26.005Z,94613.50
2023-01-30T18:59:52.855Z,94615.81
2023-01-30T19:02:19.809Z,94601.75
2023-01-30T19:04:46.783Z,94624.75
2023-01-30T19:07:13.640Z,94589.28
2023-01-30T19:09:40.666Z,94635.72
2023-01-30T19:12:26.393Z,94570.66
2023-01-30T19:14:54.560Z,94642.41
2023-01-30T19:17:21.474Z,94646.66
2023-01-30T19:19:48.665Z,94632.75
2023-01-30T19:22:17.260Z,94634.97
2023-01-30T19:24:45.066Z,94631.59
2023-01-30T19:27:14.043Z,94619.22
2023-01-30T19:29:42.808Z,94621.66
2023-01-30T19:32:09.923Z,94598.66
2023-01-30T19:34:38.679Z,94615.25
2023-01-30T19:37:06.786Z,94586.91
2023-01-30T19:39:33.682Z,94612.06
2023-01-30T19:42:01.105Z,94584.53
2023-01-30T19:44:28.137Z,94601.63
2023-01-30T19:46:55.851Z,94592.72
2023-01-30T19:49:22.826Z,94541.16
2023-01-30T19:51:49.708Z,94598.13
2023-01-30T19:54:16.572Z,94598.31
2023-01-30T19:56:47.450Z,94599.00
2023-01-30T19:59:16.049Z,94574.16
2023-01-30T20:01:43.238Z,94576.56
2023-01-30T20:04:10.377Z,94592.63
2023-01-30T20:06:38.510Z,94595.06
2023-01-30T20:09:08.437Z,94576.00
2023-01-30T20:11:37.351Z,94590.22
2023-01-30T20:14:06.617Z,94582.53
2023-01-30T20:16:35.703Z,94574.09
2023-01-30T20:19:06.150Z,94573.53
2023-01-30T20:21:33.878Z,94568.22
2023-01-30T20:24:01.219Z,94562.53
2023-01-30T20:26:31.663Z,94500.97
2023-01-30T20:28:58.729Z,94573.28
2023-01-30T20:31:27.686Z,94569.63
2023-01-30T20:33:55.893Z,94566.13
2023-01-30T20:36:23.259Z,94553.53
2023-01-30T20:38:51.465Z,94563.19
2023-01-30T20:41:21.485Z,94550.13
2023-01-30T20:43:51.178Z,94556.38
2023-01-30T20:46:23.169Z,94559.63
2023-01-30T20:48:53.362Z,94570.28
2023-01-30T20:51:24.220Z,94569.91
2023-01-30T20:53:56.938Z,94564.69
2023-01-30T20:56:25.773Z,94550.00
2023-01-30T20:58:52.834Z,94564.19
2023-01-30T21:01:22.801Z,94570.28
2023-01-30T21:03:52.326Z,94565.81
2023-01-30T21:06:41.067Z,94556.50
2023-01-30T21:09:18.292Z,94581.59
2023-01-30T21:11:46.181Z,94571.91
2023-01-30T21:14:13.471Z,94575.78
2023-01-30T21:16:40.745Z,94561.69
2023-01-30T21:19:14.312Z,94571.22
2023-01-30T21:21:46.081Z,94560.16
2023-01-30T21:24:15.185Z,94558.41
2023-01-30T21:26:46.240Z,94558.94
2023-01-30T21:29:16.357Z,94552.44
2023-01-30T21:31:44.891Z,94560.13
2023-01-30T21:34:13.103Z,94560.25
2023-01-30T21:36:40.377Z,94558.50
2023-01-30T21:39:26.411Z,94542.59
2023-01-30T21:42:12.021Z,94550.06
2023-01-30T21:44:39.238Z,94519.81
2023-01-30T21:47:06.935Z,94538.66
2023-01-30T21:49:35.138Z,94534.03
2023-01-30T21:52:02.209Z,94536.84
2023-01-30T21:54:29.340Z,94545.56
2023-01-30T21:56:56.994Z,94530.38
2023-01-30T21:59:23.973Z,94564.66
2023-01-30T22:01:51.288Z,94571.94
2023-01-30T22:04:19.605Z,94574.34
2023-01-30T22:06:46.709Z,94568.31
2023-01-30T22:09:15.621Z,94572.38
2023-01-30T22:11:42.796Z,94546.81
2023-01-30T22:14:13.318Z,94569.72
2023-01-30T22:16:41.531Z,94573.09
2023-01-30T22:19:08.739Z,94574.91
2023-01-30T22:21:40.094Z,94574.97
2023-01-30T22:24:09.045Z,94573.53
2023-01-30T22:26:36.647Z,94540.56
2023-01-30T22:29:05.294Z,94571.91
2023-01-30T22:31:37.380Z,94560.47
2023-01-30T22:34:05.033Z,94546.59
2023-01-30T22:36:33.887Z,94571.81
2023-01-30T22:39:02.048Z,94569.75
2023-01-30T22:41:31.753Z,94562.72
2023-01-30T22:43:59.972Z,94575.44
2023-01-30T22:46:33.431Z,94549.78
2023-01-30T22:49:03.543Z,94565.41
2023-01-30T22:51:35.883Z,94563.44
2023-01-30T22:54:06.351Z,94579.63
2023-01-30T22:56:39.581Z,94562.25
2023-01-30T22:59:07.507Z,94556.59
2023-01-30T23:01:37.368Z,94569.38
2023-01-30T23:04:06.060Z,94537.53
2023-01-30T23:06:33.848Z,94564.88
2023-01-30T23:09:01.413Z,94556.63
2023-01-30T23:11:36.840Z,94558.91
2023-01-30T23:14:16.345Z,94551.81
2023-01-30T23:16:44.999Z,94559.09
2023-01-30T23:19:13.685Z,94547.59
2023-01-30T23:21:44.125Z,94559.59
2023-01-30T23:24:14.693Z,94553.13
2023-01-30T23:26:44.901Z,94496.84
2023-01-30T23:29:13.701Z,94565.56
2023-01-30T23:31:42.363Z,94557.47
2023-01-30T23:34:14.030Z,94549.22
2023-01-30T23:36:41.092Z,94518.84
2023-01-30T23:39:08.339Z,94534.03
2023-01-30T23:41:36.855Z,94503.72
2023-01-30T23:44:04.537Z,94511.84
2023-01-30T23:46:37.675Z,94517.72
2023-01-30T23:49:13.713Z,94526.59
2023-01-30T23:51:42.324Z,94527.41
2023-01-30T23:54:10.851Z,94510.84
2023-01-30T23:56:40.556Z,94522.97
2023-01-30T23:59:08.082Z,94531.66
